Time;durP1;ratioP1;P1;durP2;ratioP2;P2;SDS_P1;SDS_P2;PMS_P1;PMS_P2;Temp;Humidity;BMP_temperature;BMP_pressure;BME280_temperature;BME280_humidity;BME280_pressure;Samples;Min_cycle;Max_cycle;Signal;HPM_P1;HPM_P2
2022/12/26 00:00:30;;;;;;;113.97;61.33;;;;;;;;;;6257735;28;20020;-78
2022/12/26 00:03:30;;;;;;;110.40;53.33;;;;;;;;;;6263124;28;20362;-77
2022/12/26 00:06:31;;;;;;;102.10;52.77;;;;;;;;;;6259134;28;20025;-77
2022/12/26 00:09:32;;;;;;;83.33;42.97;;;;;;;;;;6265663;28;20022;-77
2022/12/26 00:12:32;;;;;;;101.30;47.37;;;;;;;;;;6231656;28;20083;-77
2022/12/26 00:15:33;;;;;;;84.57;44.13;;;;;;;;;;6238191;28;20017;-77
2022/12/26 00:18:33;;;;;;;87.73;43.03;;;;;;;;;;6233734;28;20021;-77
2022/12/26 00:21:33;;;;;;;92.60;44.07;;;;;;;;;;6232586;28;20025;-78
2022/12/26 00:24:33;;;;;;;92.77;43.43;;;;;;;;;;6258738;28;20017;-78
2022/12/26 00:27:34;;;;;;;80.97;40.90;;;;;;;;;;6257939;28;20025;-78
2022/12/26 00:30:36;;;;;;;86.47;40.45;;;;;;;;;;6242434;28;20392;-79
2022/12/26 00:33:36;;;;;;;79.82;38.10;;;;;;;;;;6244559;28;20590;-78
2022/12/26 00:36:37;;;;;;;91.20;39.90;;;;;;;;;;6259042;28;20028;-79
2022/12/26 00:39:37;;;;;;;72.97;36.22;;;;;;;;;;6235785;28;20083;-79
2022/12/26 00:42:37;;;;;;;89.28;38.70;;;;;;;;;;6246069;28;20028;-79
2022/12/26 00:45:37;;;;;;;86.72;38.00;;;;;;;;;;6243372;28;20156;-79
2022/12/26 00:48:37;;;;;;;89.50;42.77;;;;;;;;;;6242256;28;20036;-79
2022/12/26 00:51:38;;;;;;;89.67;41.07;;;;;;;;;;6256366;28;20025;-78
2022/12/26 00:54:38;;;;;;;86.95;45.63;;;;;;;;;;6240622;28;20017;-79
2022/12/26 00:57:38;;;;;;;79.33;41.53;;;;;;;;;;6260645;28;20029;-78
2022/12/26 01:00:38;;;;;;;88.23;43.03;;;;;;;;;;6244138;28;20032;-78
2022/12/26 01:03:38;;;;;;;101.32;46.28;;;;;;;;;;6239418;28;20018;-78
2022/12/26 01:06:39;;;;;;;86.67;44.30;;;;;;;;;;6255412;28;20443;-79
2022/12/26 01:09:39;;;;;;;83.55;46.70;;;;;;;;;;6240978;28;20021;-78
2022/12/26 01:12:39;;;;;;;87.80;46.17;;;;;;;;;;6238810;28;20034;-78
2022/12/26 01:15:39;;;;;;;87.32;46.75;;;;;;;;;;6226337;28;20884;-78
2022/12/26 01:18:39;;;;;;;88.13;45.03;;;;;;;;;;6258578;28;20028;-79
2022/12/26 01:21:41;;;;;;;88.38;46.42;;;;;;;;;;6248546;28;20062;-77
2022/12/26 01:24:42;;;;;;;86.38;42.40;;;;;;;;;;6237445;28;20013;-78
2022/12/26 01:27:42;;;;;;;73.73;40.13;;;;;;;;;;6256747;28;20560;-78
2022/12/26 01:30:42;;;;;;;75.83;37.57;;;;;;;;;;6267183;28;20032;-78
2022/12/26 01:33:42;;;;;;;77.35;38.80;;;;;;;;;;6254463;28;20605;-78
2022/12/26 01:36:42;;;;;;;82.00;39.47;;;;;;;;;;6259098;28;20029;-79
2022/12/26 01:39:43;;;;;;;83.07;36.33;;;;;;;;;;6261520;28;20021;-78
2022/12/26 01:42:43;;;;;;;86.50;42.33;;;;;;;;;;6234567;28;20382;-79
2022/12/26 01:45:48;;;;;;;59.40;27.10;;;;;;;;;;6243691;28;20046;-78
2022/12/26 01:48:49;;;;;;;75.97;36.75;;;;;;;;;;6267294;28;20014;-78
2022/12/26 01:51:52;;;;;;;75.97;37.03;;;;;;;;;;6260390;28;20024;-78
2022/12/26 01:54:53;;;;;;;70.20;36.38;;;;;;;;;;6263791;28;20391;-79
2022/12/26 01:58:00;;;;;;;78.53;37.63;;;;;;;;;;6262880;28;20036;-78
2022/12/26 02:01:01;;;;;;;69.70;33.60;;;;;;;;;;6241008;28;20105;-78
2022/12/26 02:07:22;;;;;;;65.28;31.77;;;;;;;;;;6260266;28;20393;-78
2022/12/26 02:10:25;;;;;;;74.47;33.10;;;;;;;;;;6241753;28;20024;-78
2022/12/26 02:13:26;;;;;;;64.65;34.55;;;;;;;;;;6265931;28;20028;-78
2022/12/26 02:16:26;;;;;;;58.42;26.48;;;;;;;;;;6243213;28;20039;-78
2022/12/26 02:19:39;;;;;;;68.33;32.50;;;;;;;;;;6246652;28;20029;-78
2022/12/26 02:22:55;;;;;;;71.80;34.50;;;;;;;;;;6236619;28;20021;-78
2022/12/26 02:25:58;;;;;;;66.45;34.72;;;;;;;;;;6233869;28;20033;-78
2022/12/26 02:29:17;;;;;;;65.93;32.75;;;;;;;;;;6248239;28;20509;-78
2022/12/26 02:32:20;;;;;;;68.38;31.42;;;;;;;;;;6255046;28;20043;-78
2022/12/26 02:35:30;;;;;;;64.03;34.60;;;;;;;;;;6229879;28;20037;-78
2022/12/26 02:38:49;;;;;;;74.55;42.05;;;;;;;;;;6255578;28;20017;-78
2022/12/26 02:41:49;;;;;;;77.95;41.42;;;;;;;;;;6243502;28;21025;-79
2022/12/26 02:48:34;;;;;;;78.95;36.28;;;;;;;;;;6223258;28;20022;-78
2022/12/26 03:13:11;;;;;;;57.75;32.25;;;;;;;;;;6257260;28;20037;-79
2022/12/26 03:19:31;;;;;;;71.85;36.13;;;;;;;;;;6240898;28;20081;-79
2022/12/26 03:22:35;;;;;;;74.90;36.30;;;;;;;;;;6216154;28;20629;-78
2022/12/26 03:30:47;;;;;;;76.75;35.85;;;;;;;;;;6267782;28;20053;-79
2022/12/26 03:32:15;;;;;;;68.68;34.22;;;;;;;;;;6250286;28;20033;-78
2022/12/26 03:35:15;;;;;;;74.82;33.67;;;;;;;;;;6241042;28;20375;-78
2022/12/26 03:38:18;;;;;;;69.17;32.83;;;;;;;;;;6259066;28;20074;-79
2022/12/26 04:45:33;;;;;;;85.30;41.70;;;;;;;;;;6250826;28;20244;-78
2022/12/26 04:52:00;;;;;;;82.32;41.42;;;;;;;;;;6248807;28;20022;-77
2022/12/26 04:55:00;;;;;;;79.23;40.40;;;;;;;;;;6250050;28;20418;-78
2022/12/26 04:58:00;;;;;;;85.20;43.10;;;;;;;;;;6240544;28;20017;-79
2022/12/26 05:10:58;;;;;;;67.97;31.02;;;;;;;;;;6251357;28;20039;-78
2022/12/26 05:13:58;;;;;;;65.63;31.03;;;;;;;;;;6233892;28;20538;-78
2022/12/26 05:30:14;;;;;;;61.78;29.40;;;;;;;;;;6241519;28;20025;-78
2022/12/26 05:36:44;;;;;;;70.00;29.15;;;;;;;;;;6259462;28;20049;-78
2022/12/26 05:39:44;;;;;;;49.88;25.50;;;;;;;;;;6250912;28;20022;-78
2022/12/26 05:42:45;;;;;;;64.30;32.85;;;;;;;;;;6243987;28;20028;-79
2022/12/26 05:45:45;;;;;;;57.20;30.27;;;;;;;;;;6225763;28;20022;-79
2022/12/26 05:48:45;;;;;;;59.67;32.93;;;;;;;;;;6237675;28;20010;-78
2022/12/26 05:51:45;;;;;;;63.53;32.03;;;;;;;;;;6243229;28;20133;-79
2022/12/26 05:54:45;;;;;;;64.80;34.23;;;;;;;;;;6234768;28;20017;-78
2022/12/26 05:57:46;;;;;;;67.05;32.45;;;;;;;;;;6246977;28;20029;-78
2022/12/26 06:00:46;;;;;;;63.50;34.10;;;;;;;;;;6253554;28;20072;-78
2022/12/26 06:03:47;;;;;;;61.70;29.27;;;;;;;;;;6227666;28;20017;-78
2022/12/26 06:06:48;;;;;;;60.30;30.52;;;;;;;;;;6231527;28;20071;-78
2022/12/26 06:09:48;;;;;;;64.23;31.77;;;;;;;;;;6243601;28;20025;-78
2022/12/26 06:12:48;;;;;;;55.40;25.60;;;;;;;;;;6227634;28;20485;-78
2022/12/26 06:15:48;;;;;;;65.93;31.25;;;;;;;;;;6222697;28;20488;-79
2022/12/26 06:18:48;;;;;;;58.20;28.00;;;;;;;;;;6231556;28;20080;-78
2022/12/26 06:21:48;;;;;;;57.57;29.90;;;;;;;;;;6220538;28;20615;-79
2022/12/26 06:24:49;;;;;;;64.53;32.27;;;;;;;;;;6241842;28;20234;-79
2022/12/26 06:27:49;;;;;;;65.00;29.35;;;;;;;;;;6224640;28;20024;-78
2022/12/26 06:30:50;;;;;;;60.30;30.90;;;;;;;;;;6249274;28;20028;-78
2022/12/26 06:33:53;;;;;;;61.10;29.33;;;;;;;;;;6241934;28;20024;-78
2022/12/26 06:36:54;;;;;;;66.68;35.60;;;;;;;;;;6249342;28;20032;-78
2022/12/26 06:39:54;;;;;;;76.77;37.30;;;;;;;;;;6234690;28;20022;-78
2022/12/26 06:42:54;;;;;;;67.70;36.40;;;;;;;;;;6227119;28;20030;-78
2022/12/26 06:45:55;;;;;;;66.22;36.45;;;;;;;;;;6255960;28;20021;-78
2022/12/26 06:48:56;;;;;;;67.28;37.35;;;;;;;;;;6260778;28;20067;-78
2022/12/26 06:51:56;;;;;;;68.72;34.80;;;;;;;;;;6253275;28;20309;-78
2022/12/26 06:54:57;;;;;;;73.28;36.00;;;;;;;;;;6241041;28;20014;-77
2022/12/26 06:57:57;;;;;;;63.95;35.45;;;;;;;;;;6213281;28;20013;-77
2022/12/26 07:01:08;;;;;;;59.85;36.50;;;;;;;;;;6228348;28;20036;-78
2022/12/26 07:04:11;;;;;;;61.77;36.93;;;;;;;;;;6237551;28;20108;-78
2022/12/26 07:07:11;;;;;;;68.43;39.72;;;;;;;;;;6242320;28;20018;-78
2022/12/26 07:10:11;;;;;;;67.53;40.72;;;;;;;;;;6244979;28;20484;-78
2022/12/26 07:13:11;;;;;;;77.95;40.97;;;;;;;;;;6257905;28;20017;-78
2022/12/26 07:16:12;;;;;;;70.53;38.00;;;;;;;;;;6256167;28;20076;-78
2022/12/26 07:19:13;;;;;;;60.03;32.93;;;;;;;;;;6237728;28;20446;-78
2022/12/26 07:22:13;;;;;;;52.47;31.37;;;;;;;;;;6234638;28;20022;-78
2022/12/26 07:25:13;;;;;;;52.27;32.27;;;;;;;;;;6231940;28;20032;-78
2022/12/26 07:28:14;;;;;;;49.47;30.57;;;;;;;;;;6248308;28;20087;-78
2022/12/26 07:31:15;;;;;;;47.33;29.07;;;;;;;;;;6247462;28;20021;-78
2022/12/26 07:34:15;;;;;;;52.57;32.33;;;;;;;;;;6236639;28;20018;-78
2022/12/26 07:37:15;;;;;;;57.43;34.00;;;;;;;;;;6253801;28;20075;-78
2022/12/26 07:40:15;;;;;;;52.47;32.57;;;;;;;;;;6230511;28;20042;-79
2022/12/26 07:43:15;;;;;;;53.92;31.85;;;;;;;;;;6254784;28;20025;-78
2022/12/26 07:46:16;;;;;;;52.63;30.20;;;;;;;;;;6245554;28;20030;-79
2022/12/26 07:49:16;;;;;;;42.13;27.53;;;;;;;;;;6239576;28;20638;-78
2022/12/26 07:52:17;;;;;;;35.10;22.37;;;;;;;;;;6247158;28;20030;-78
2022/12/26 07:55:17;;;;;;;36.00;23.33;;;;;;;;;;6250971;28;20074;-79
2022/12/26 07:58:17;;;;;;;31.97;21.90;;;;;;;;;;6220456;28;20020;-79
2022/12/26 08:01:18;;;;;;;33.80;20.42;;;;;;;;;;6233362;28;20032;-78
2022/12/26 08:04:18;;;;;;;32.77;21.00;;;;;;;;;;6236109;28;20025;-79
2022/12/26 08:07:18;;;;;;;32.95;20.90;;;;;;;;;;6226004;28;20013;-79
2022/12/26 08:10:18;;;;;;;30.77;20.45;;;;;;;;;;6254348;28;20032;-78
2022/12/26 08:13:19;;;;;;;32.27;21.20;;;;;;;;;;6245821;28;20393;-79
2022/12/26 08:16:19;;;;;;;33.47;19.43;;;;;;;;;;6237216;28;20035;-78
2022/12/26 08:19:19;;;;;;;37.13;21.70;;;;;;;;;;6226252;28;20022;-78
2022/12/26 08:22:19;;;;;;;33.17;21.77;;;;;;;;;;6219712;28;20026;-78
2022/12/26 08:25:20;;;;;;;42.75;22.08;;;;;;;;;;6209227;28;20088;-78
2022/12/26 08:28:20;;;;;;;42.77;25.53;;;;;;;;;;6234679;28;20033;-79
2022/12/26 08:31:20;;;;;;;37.20;22.87;;;;;;;;;;6241853;28;20092;-78
2022/12/26 08:34:20;;;;;;;28.80;16.17;;;;;;;;;;6256384;28;20040;-79
2022/12/26 08:37:22;;;;;;;42.93;19.10;;;;;;;;;;6253655;28;20408;-79
2022/12/26 08:40:23;;;;;;;21.08;12.55;;;;;;;;;;6235475;28;20106;-78
2022/12/26 08:43:23;;;;;;;25.63;15.87;;;;;;;;;;6235816;28;20497;-78
2022/12/26 08:46:23;;;;;;;32.70;15.83;;;;;;;;;;6260228;28;20013;-78
2022/12/26 08:49:24;;;;;;;31.90;17.13;;;;;;;;;;6253006;28;20021;-78
2022/12/26 08:52:24;;;;;;;34.33;17.93;;;;;;;;;;6236626;28;20397;-79
2022/12/26 08:55:24;;;;;;;31.30;18.87;;;;;;;;;;6254609;28;20021;-78
2022/12/26 08:58:24;;;;;;;33.70;19.43;;;;;;;;;;6255433;28;20370;-78
2022/12/26 09:01:26;;;;;;;33.30;18.27;;;;;;;;;;6255206;28;20014;-78
2022/12/26 09:04:26;;;;;;;31.02;18.13;;;;;;;;;;6247035;28;20026;-78
2022/12/26 09:07:26;;;;;;;30.33;17.73;;;;;;;;;;6251327;28;20013;-78
2022/12/26 09:10:27;;;;;;;35.23;18.80;;;;;;;;;;6264147;28;20027;-78
2022/12/26 09:13:27;;;;;;;27.88;17.55;;;;;;;;;;6250085;28;20022;-78
2022/12/26 09:16:29;;;;;;;31.05;15.32;;;;;;;;;;6258641;28;20064;-78
2022/12/26 09:19:31;;;;;;;39.75;19.35;;;;;;;;;;6248664;28;20092;-78
2022/12/26 09:22:49;;;;;;;;;;;;;;;;;;6239060;28;20022;-77
2022/12/26 09:25:50;;;;;;;31.05;18.58;;;;;;;;;;6247396;28;20379;-78
2022/12/26 09:28:50;;;;;;;33.85;19.05;;;;;;;;;;6232506;28;20022;-77
2022/12/26 09:31:50;;;;;;;33.73;17.83;;;;;;;;;;6249227;28;20025;-78
2022/12/26 09:34:50;;;;;;;34.58;18.52;;;;;;;;;;6225989;28;20036;-78
2022/12/26 09:37:50;;;;;;;31.98;18.73;;;;;;;;;;6243513;28;20042;-78
2022/12/26 09:41:06;;;;;;;35.97;19.75;;;;;;;;;;6243913;28;20494;-78
2022/12/26 09:44:06;;;;;;;30.45;19.38;;;;;;;;;;6225873;28;20422;-78
2022/12/26 09:47:07;;;;;;;26.40;14.60;;;;;;;;;;6250958;28;20490;-78
2022/12/26 09:50:19;;;;;;;25.87;17.00;;;;;;;;;;6234067;28;20025;-77
2022/12/26 09:53:30;;;;;;;29.35;15.45;;;;;;;;;;6229927;28;20436;-78
2022/12/26 09:56:32;;;;;;;30.17;17.63;;;;;;;;;;6249758;28;20114;-77
2022/12/26 09:59:36;;;;;;;28.08;16.10;;;;;;;;;;6231497;28;20022;-77
2022/12/26 10:02:36;;;;;;;32.05;18.13;;;;;;;;;;6256803;28;20041;-77
2022/12/26 10:05:43;;;;;;;29.77;17.97;;;;;;;;;;6250190;28;20489;-77
2022/12/26 10:08:50;;;;;;;35.22;19.98;;;;;;;;;;6221640;28;20097;-78
2022/12/26 10:11:53;;;;;;;28.75;18.35;;;;;;;;;;6255623;28;20373;-78
2022/12/26 10:14:55;;;;;;;30.45;17.38;;;;;;;;;;6233312;28;20036;-78
